Aurora, Ohio
Current Conditions -  °F | °C
As of 10:33 AM on Saturday 20 Dec 2014 (Local Time) from KPOV Reporting Station
NA  
Wind Chill: 28°   Ceiling: NA
Heat Index: 28°   Visibility: 10mi
Dew Point: 18°   Wind: 3mph
Humidity: 66%   Direction: 140°SE
Pressure: 30.28"   Gusts: NA
Location:  41.31°N, 81.34°W
Report Text: KPOV 201533Z AUTO 14003KT 10SM M02/M08 A3028 RMK AO2 T10211077
Loading
Personal Weather Stations






























Interactive Weather Map New forecast layout! Learn more

10-Day Weather Forecast

Advertisements
Track Severe Weather on mobile